Airfield :
LOGIN :

Register | Disclaimer

   EN    FR    IT 

 










Legend :    VFR   Marginal VFR   IFR   Intensive IFR   Very Intensive IFR
Visi :
Ceiling :
>= 8 km
>= 3000ft
5 to 8 km
1000 to 3000 ft
1500m to 5 km
500 to 1000 ft
800 to 1500m
200 to 500 ft
< 800m
< 200 ft
Symbols :   Thunderstorms  Fog  Heavy snow  Heavy precipitations  Wind > 20 kt
SIGMETs :     Misc.  Thunderstorms  Icing  Turbulence  Mountain Waves  Volcanic Ashes






- Airport Elevation : 242 ft
- IATA code : DUB


EIDW - Dublin

CURRENT METAR :
  • 061500Z 27017KT 9999 FEW014 SCT024 BKN040 09/06 Q1001 NOSIG

EXPIRED METARs :
  • 061430Z 27018KT 9999 FEW014 SCT024 BKN040 09/06 Q1001 NOSIG
  • 061400Z 27016KT 9999 FEW014 BKN024 09/07 Q1000 NOSIG
  • 061330Z 28020KT 9999 -SHRA FEW014 BKN024 09/06 Q1000 NOSIG
  • 061300Z 28021G31KT 9999 FEW014 SCT023 BKN040 09/06 Q0999 NOSIG
  • 061230Z 27021G31KT 9999 FEW012 SCT023 BKN040 09/06 Q0999 NOSIG

TAF TAF EIDW
Valid from the 06 at 12:00 until the 07 at 12:00 UTC


061100Z 0612/0712 27019G31KT 9999 SCT018 SCT030
PROB40
TEMPO 0612/0613 28022G36KT
TEMPO 0612/0613 4000 SHRA SCT010 SCT018CB
BECMG 0616/0618 28015G26KT
BECMG 0618/0620 26012KT
BECMG 0709/0711 23012KT



MET'MAP, your aeronautical weather chart ! - Copyright ORBIFLY December 2007 - Disclaimer

ORBIFLY MET'MAP TEAM :

Programming & Development : Alexandra Zaïnal
Concept & original design : Baudouin d'Aumeries
Assistance for programming : Marc-Olivier Méhu
Technical & hardware support : Manuel Goepfert

Contact : metmap@orbifly.com




SOURCES & CREDITS :

   NOAA